CST,Max TemperatureF,Mean TemperatureF,Min TemperatureF,Max Dew PointF,MeanDew PointF,Min DewpointF,Max Humidity, Mean Humidity, Min Humidity, Max Sea Level PressureIn, Mean Sea Level PressureIn, Min Sea Level PressureIn, Max VisibilityMiles, Mean VisibilityMiles, Min VisibilityMiles, Max Wind SpeedMPH, Mean Wind SpeedMPH, Max Gust SpeedMPH,PrecipitationIn, CloudCover, Events, WindDirDegrees
2013-11-1,64,53,42,41,37,32,81,57,32,30.15,29.96,29.81,10,10,10,23,11,34,0.00,1,,312
2013-11-2,62,48,35,37,31,28,87,54,27,30.33,30.24,30.16,10,10,6,15,9,21,0.00,0,,330
2013-11-3,64,52,39,39,35,32,76,50,32,30.06,29.91,29.79,10,10,9,41,22,48,0.00,1,,178
2013-11-4,60,53,46,54,42,37,88,62,45,30.03,29.94,29.78,10,10,8,30,14,38,0.00,3,,107
2013-11-5,62,50,39,61,53,36,100,92,76,30.12,29.95,29.84,10,8,1,29,15,36,0.06,8,Rain,182
2013-11-6,55,44,33,36,33,28,93,71,36,30.36,30.28,30.13,10,10,9,18,11,23,0.00,1,,313
2013-11-7,64,48,32,41,33,28,87,63,28,30.47,30.38,30.29,10,10,3,13,7,,0.00,0,,204
2013-11-8,68,54,39,36,30,27,81,45,21,30.29,30.05,29.89,10,10,9,43,18,53,0.00,2,,197
2013-11-9,62,50,39,45,41,36,93,72,51,30.26,30.11,29.97,10,10,10,14,8,,0.00,2,,115
2013-11-10,62,54,46,54,49,43,94,82,59,30.36,30.28,30.23,10,10,10,13,7,16,0.00,8,,115
2013-11-11,60,48,32,54,46,23,94,84,65,30.62,30.29,30.18,10,9,3,30,12,39,0.00,8,Rain,292
2013-11-12,39,31,23,19,12,1,68,49,22,30.86,30.75,30.64,10,10,8,24,15,32,0.00,1,,33
2013-11-13,55,37,19,25,17,12,80,48,28,30.68,30.42,30.17,10,10,10,24,12,31,0.00,0,,194
2013-11-14,57,47,37,36,25,10,81,46,29,30.16,30.00,29.91,10,10,8,21,14,30,0.00,1,,194
2013-11-15,66,48,30,43,36,28,100,67,35,29.92,29.79,29.63,10,10,8,21,10,26,0.00,1,,187
2013-11-16,80,66,53,48,42,34,72,45,20,29.63,29.50,29.41,10,10,9,37,21,45,0.00,1,,213
2013-11-17,68,54,37,36,26,14,57,32,16,30.15,29.81,29.45,10,10,10,28,14,37,0.00,1,,324
2013-11-18,57,44,32,28,23,16,69,43,20,30.30,30.23,30.16,10,10,8,9,5,,0.00,1,,76
2013-11-19,64,50,37,36,31,27,75,48,30,30.19,30.00,29.83,10,10,10,29,13,38,0.00,2,,156
2013-11-20,68,59,50,54,44,28,77,61,43,29.89,29.80,29.76,10,10,10,29,17,36,0.00,5,,179
2013-11-21,53,40,26,54,35,18,100,85,69,30.53,30.16,29.88,10,7,1,28,15,37,0.01,8,Rain-Thunderstorm,26
2013-11-22,32,28,24,23,16,12,86,65,44,30.67,30.60,30.53,10,10,6,26,19,32,0.00,8,Rain,358
2013-11-23,37,32,26,19,15,7,64,49,35,30.72,30.67,30.62,10,10,10,20,13,24,0.00,5,,21
2013-11-24,28,26,24,21,16,10,80,65,51,30.70,30.51,30.26,10,10,6,16,8,18,0.00,7,Snow,126
2013-11-25,35,30,26,27,25,21,93,78,70,30.24,30.21,30.17,10,10,6,14,9,,0.00,7,,237
2013-11-26,44,32,19,25,21,16,93,64,34,30.46,30.33,30.23,10,10,10,24,12,33,0.00,0,,346
2013-11-27,42,28,14,23,15,9,86,59,31,30.46,30.34,30.18,10,10,9,16,8,20,0.00,0,,209
2013-11-28,50,39,28,32,28,23,86,69,50,30.40,30.27,30.15,10,10,10,14,9,,0.00,0,,25
2013-11-29,59,41,23,32,28,21,93,68,29,30.40,30.28,30.14,10,10,7,25,9,31,0.00,0,,156
2013-11-30,62,47,32,36,32,28,93,66,32,30.17,30.13,30.07,10,10,9,13,7,,0.00,0,,233